Sterling, Ohio
Current Conditions -  °F | °C
As of 3:56 PM on Sunday 21 Dec 2014 (Local Time) from KBJJ Reporting Station
Haze Haze  
Wind Chill: 25°   Ceiling: 1900
Heat Index: 30°   Visibility: 5mi
Dew Point: 22°   Wind: 5mph
Humidity: 72%   Direction: 170°S
Pressure: 30.24"   Gusts: NA
Location:  40.97°N, 81.85°W
Report Text: KBJJ 212056Z AUTO 17004KT 5SM HZ OVC019 M01/M06 A3024 RMK AO2 SLP253 T10111056 55010 TSNO
Loading
Personal Weather Stations






























Interactive Weather Map New forecast layout! Learn more

10-Day Weather Forecast

Advertisements
Track Severe Weather on mobile